Time;durP1;ratioP1;P1;durP2;ratioP2;P2;SDS_P1;SDS_P2;PMS_P1;PMS_P2;Temp;Humidity;BMP_temperature;BMP_pressure;BME280_temperature;BME280_humidity;BME280_pressure;Samples;Min_cycle;Max_cycle;Signal;HPM_P1;HPM_P2
2024/02/14 00:01:25;;;;;;;7.23;6.17;;;9.10;99.90;;;;;;4997843;28;20231;-60
2024/02/14 00:03:53;;;;;;;8.23;6.93;;;9.10;99.90;;;;;;4998307;28;20226;-61
2024/02/14 00:06:23;;;;;;;7.90;6.20;;;9.10;99.90;;;;;;4997550;28;20237;-61
2024/02/14 00:08:53;;;;;;;7.30;6.50;;;9.10;99.90;;;;;;4998068;28;20226;-61
2024/02/14 00:11:23;;;;;;;7.10;6.33;;;9.10;99.90;;;;;;4998609;28;20245;-61
2024/02/14 00:13:51;;;;;;;6.80;6.07;;;9.10;99.90;;;;;;5002796;28;20190;-62
2024/02/14 00:16:19;;;;;;;8.17;5.90;;;9.20;99.90;;;;;;4996806;28;20253;-62
2024/02/14 00:18:48;;;;;;;6.63;6.00;;;9.20;99.90;;;;;;4995528;28;20222;-61
2024/02/14 00:21:16;;;;;;;8.17;5.90;;;9.20;99.90;;;;;;4999233;28;20310;-61
2024/02/14 00:23:44;;;;;;;8.93;6.33;;;9.30;99.90;;;;;;4995519;28;20232;-61
2024/02/14 00:26:14;;;;;;;7.30;5.97;;;9.30;99.90;;;;;;4998317;28;20198;-61
2024/02/14 00:28:42;;;;;;;7.83;5.90;;;9.30;99.90;;;;;;4999141;28;20574;-61
2024/02/14 00:31:11;;;;;;;7.43;6.43;;;9.30;99.90;;;;;;5003012;28;20229;-61
2024/02/14 00:33:39;;;;;;;8.27;6.13;;;9.30;99.90;;;;;;4996003;28;20230;-61
2024/02/14 00:36:08;;;;;;;6.93;5.60;;;9.30;99.90;;;;;;4999729;28;20245;-61
2024/02/14 00:38:36;;;;;;;10.30;5.70;;;9.40;99.90;;;;;;4997276;28;20701;-61
2024/02/14 00:41:05;;;;;;;10.53;6.47;;;9.40;99.90;;;;;;4998218;28;20812;-61
2024/02/14 00:43:34;;;;;;;6.90;6.17;;;9.40;99.90;;;;;;4998295;28;20223;-61
2024/02/14 00:46:03;;;;;;;6.83;6.00;;;9.40;99.90;;;;;;4999852;28;20219;-61
2024/02/14 00:48:31;;;;;;;8.23;5.90;;;9.40;99.90;;;;;;4999219;28;20242;-61
2024/02/14 00:51:00;;;;;;;6.47;5.77;;;9.40;99.90;;;;;;4999030;28;20596;-61
2024/02/14 00:53:28;;;;;;;7.40;5.80;;;9.40;99.90;;;;;;4996960;28;20717;-62
2024/02/14 00:55:56;;;;;;;6.17;5.63;;;9.40;99.90;;;;;;5002034;28;20198;-61
2024/02/14 00:58:24;;;;;;;6.83;6.17;;;9.40;99.90;;;;;;5003379;28;20222;-61
2024/02/14 01:00:54;;;;;;;9.43;6.57;;;9.50;99.90;;;;;;5004135;28;20226;-61
2024/02/14 01:03:22;;;;;;;6.93;6.23;;;9.50;99.90;;;;;;5005347;28;20649;-61
2024/02/14 01:05:50;;;;;;;8.73;6.13;;;9.50;99.90;;;;;;5005529;28;20238;-61
2024/02/14 01:08:19;;;;;;;8.13;6.67;;;9.50;99.90;;;;;;5003603;28;20229;-62
2024/02/14 01:10:51;;;;;;;7.93;6.53;;;9.50;99.90;;;;;;5005927;28;20190;-62
2024/02/14 01:13:19;;;;;;;7.80;6.33;;;9.50;99.90;;;;;;5006828;28;20288;-61
2024/02/14 01:15:48;;;;;;;9.13;7.00;;;9.50;99.90;;;;;;5001810;28;20225;-61
2024/02/14 01:18:17;;;;;;;7.33;6.63;;;9.50;99.90;;;;;;5001755;28;20225;-61
2024/02/14 01:20:46;;;;;;;6.97;6.33;;;9.50;99.90;;;;;;5003225;28;20227;-62
2024/02/14 01:23:14;;;;;;;9.30;6.93;;;9.50;99.90;;;;;;4996228;28;20297;-61
2024/02/14 01:25:43;;;;;;;7.77;6.30;;;9.50;99.90;;;;;;5001542;28;20194;-62
2024/02/14 01:28:11;;;;;;;8.93;6.60;;;9.50;99.90;;;;;;5000933;28;20242;-61
2024/02/14 01:30:41;;;;;;;7.97;6.67;;;9.50;99.90;;;;;;5002725;28;20926;-61
2024/02/14 01:33:09;;;;;;;7.63;6.67;;;9.50;99.90;;;;;;5000380;28;20259;-62
2024/02/14 01:35:39;;;;;;;10.67;7.40;;;9.50;99.90;;;;;;4998334;28;20317;-62
2024/02/14 01:38:07;;;;;;;7.20;6.50;;;9.50;99.90;;;;;;5004375;28;20211;-61
2024/02/14 01:40:35;;;;;;;11.40;7.13;;;9.50;99.90;;;;;;4999000;28;20221;-61
2024/02/14 01:43:04;;;;;;;9.80;7.50;;;9.50;99.90;;;;;;5003843;28;20222;-62
2024/02/14 01:45:32;;;;;;;10.87;7.30;;;9.50;99.90;;;;;;5001826;28;20301;-62
2024/02/14 01:48:02;;;;;;;15.70;7.40;;;9.50;99.90;;;;;;5002400;28;20572;-61
2024/02/14 01:50:31;;;;;;;7.50;6.57;;;9.50;99.90;;;;;;5005278;28;20182;-61
2024/02/14 01:53:02;;;;;;;8.30;6.90;;;9.50;99.90;;;;;;4998438;28;20221;-62
2024/02/14 01:55:30;;;;;;;12.20;7.03;;;9.50;99.90;;;;;;5000370;28;20214;-62
2024/02/14 01:57:58;;;;;;;9.87;6.90;;;9.60;99.90;;;;;;4997555;28;20616;-61
2024/02/14 02:00:27;;;;;;;8.63;6.80;;;9.60;99.90;;;;;;4999311;28;20229;-61
2024/02/14 02:02:55;;;;;;;9.27;7.60;;;9.60;99.90;;;;;;5000279;28;20222;-61
2024/02/14 02:05:24;;;;;;;8.03;7.20;;;9.60;99.90;;;;;;4998393;28;20238;-61
2024/02/14 02:07:53;;;;;;;7.70;6.90;;;9.60;99.90;;;;;;4998279;28;20345;-62
2024/02/14 02:10:25;;;;;;;9.00;7.30;;;9.60;99.90;;;;;;5000562;28;20218;-62
2024/02/14 02:12:59;;;;;;;12.13;7.10;;;9.60;99.90;;;;;;4999914;28;20230;-62
2024/02/14 02:15:27;;;;;;;10.67;7.23;;;9.60;99.90;;;;;;4999320;28;20214;-62
2024/02/14 02:17:56;;;;;;;7.20;6.50;;;9.60;99.90;;;;;;4997848;28;20253;-61
2024/02/14 02:20:24;;;;;;;11.73;6.97;;;9.60;99.90;;;;;;5002154;28;20302;-61
2024/02/14 02:22:54;;;;;;;8.07;7.23;;;9.70;99.90;;;;;;4999713;28;20203;-61
2024/02/14 02:25:25;;;;;;;7.60;6.70;;;9.70;99.90;;;;;;4997397;28;20226;-61
2024/02/14 02:27:53;;;;;;;7.87;6.70;;;9.70;99.90;;;;;;5000613;28;20297;-61
2024/02/14 02:30:21;;;;;;;12.33;7.57;;;9.70;99.90;;;;;;5000500;28;20227;-61
2024/02/14 02:32:51;;;;;;;8.23;7.43;;;9.60;99.90;;;;;;4997867;28;20223;-62
2024/02/14 02:35:20;;;;;;;9.63;7.87;;;9.50;99.90;;;;;;5001269;28;20190;-61
2024/02/14 02:37:50;;;;;;;10.33;7.83;;;9.50;99.90;;;;;;4999370;28;20311;-62
2024/02/14 02:40:21;;;;;;;10.33;8.37;;;9.40;99.90;;;;;;5001166;28;20230;-62
2024/02/14 02:42:50;;;;;;;10.90;8.13;;;9.40;99.90;;;;;;5001438;28;20268;-62
2024/02/14 02:45:18;;;;;;;11.00;8.10;;;9.40;99.90;;;;;;5000023;28;20229;-61
2024/02/14 02:47:47;;;;;;;11.37;8.30;;;9.40;99.90;;;;;;5006874;28;20229;-61
2024/02/14 02:50:16;;;;;;;11.87;8.40;;;9.40;99.90;;;;;;4999534;28;20190;-61
2024/02/14 02:52:44;;;;;;;12.00;8.43;;;9.40;99.90;;;;;;5002091;28;20281;-61
2024/02/14 02:55:12;;;;;;;12.53;8.37;;;9.40;99.90;;;;;;4999896;28;20227;-61
2024/02/14 02:57:45;;;;;;;13.03;8.00;;;9.40;99.90;;;;;;4997921;28;20245;-61
2024/02/14 03:00:15;;;;;;;13.10;8.60;;;9.40;99.90;;;;;;4998174;28;20236;-61
2024/02/14 03:02:44;;;;;;;10.27;7.57;;;9.40;99.90;;;;;;4997174;28;20701;-61
2024/02/14 03:05:17;;;;;;;10.70;8.20;;;9.50;99.90;;;;;;4997911;28;20237;-61
2024/02/14 03:07:49;;;;;;;14.73;8.63;;;9.50;99.90;;;;;;4998134;28;20194;-62
2024/02/14 03:10:18;;;;;;;11.90;8.03;;;9.50;99.90;;;;;;4999509;28;20222;-61
2024/02/14 03:12:49;;;;;;;13.27;8.40;;;9.50;99.90;;;;;;4996413;28;20214;-61
2024/02/14 03:15:18;;;;;;;13.87;9.00;;;9.40;99.90;;;;;;5001825;28;20244;-61
2024/02/14 03:17:47;;;;;;;12.57;7.97;;;9.50;99.90;;;;;;4997608;28;20276;-61
2024/02/14 03:20:16;;;;;;;15.30;8.70;;;9.50;99.90;;;;;;5001746;28;20237;-61
2024/02/14 03:22:46;;;;;;;13.43;8.37;;;9.50;99.90;;;;;;4981467;28;20258;-61
2024/02/14 03:25:18;;;;;;;10.87;8.30;;;9.50;99.90;;;;;;4999117;28;20230;-61
2024/02/14 03:27:51;;;;;;;12.43;8.40;;;9.50;99.90;;;;;;4994506;28;20313;-61
2024/02/14 03:30:20;;;;;;;11.27;8.50;;;9.60;99.90;;;;;;4993927;28;20229;-61
2024/02/14 03:32:48;;;;;;;14.00;7.97;;;9.60;99.90;;;;;;4997369;28;20241;-61
2024/02/14 03:35:17;;;;;;;10.97;8.03;;;9.70;99.90;;;;;;5000476;28;20264;-62
2024/02/14 03:37:48;;;;;;;12.87;7.60;;;9.70;99.90;;;;;;5001641;28;20315;-61
2024/02/14 03:40:17;;;;;;;13.30;7.97;;;9.70;99.90;;;;;;4999139;28;20232;-61
2024/02/14 03:42:45;;;;;;;7.77;7.03;;;9.70;99.90;;;;;;4998763;28;20211;-62
2024/02/14 03:45:14;;;;;;;11.80;7.73;;;9.80;99.90;;;;;;4997394;28;20230;-61
2024/02/14 03:47:43;;;;;;;13.20;8.60;;;9.80;99.90;;;;;;4996529;28;20313;-61
2024/02/14 03:50:12;;;;;;;10.47;7.97;;;9.70;99.90;;;;;;4998281;28;20273;-61
2024/02/14 03:52:42;;;;;;;9.03;7.83;;;9.80;99.90;;;;;;5017547;28;20301;-61
2024/02/14 03:55:13;;;;;;;14.93;8.50;;;9.80;99.90;;;;;;5018938;28;20214;-61
2024/02/14 03:57:42;;;;;;;10.87;7.73;;;9.80;99.90;;;;;;5014618;28;20236;-62
2024/02/14 04:00:11;;;;;;;13.17;8.50;;;9.80;99.90;;;;;;5018926;28;20217;-61
2024/02/14 04:02:41;;;;;;;10.63;8.00;;;9.80;99.90;;;;;;5019446;28;20256;-61
2024/02/14 04:05:10;;;;;;;12.73;8.97;;;9.80;99.90;;;;;;5020114;28;20223;-62
2024/02/14 04:07:38;;;;;;;12.90;8.60;;;9.80;99.90;;;;;;5014293;28;20221;-61
2024/02/14 04:10:10;;;;;;;13.13;8.73;;;9.80;99.90;;;;;;5017002;28;20280;-61
2024/02/14 04:12:38;;;;;;;11.10;8.40;;;9.80;99.90;;;;;;5017146;28;20315;-61
2024/02/14 04:15:07;;;;;;;9.00;7.67;;;9.80;99.90;;;;;;5016520;28;20220;-61
2024/02/14 04:17:36;;;;;;;11.37;8.67;;;9.80;99.90;;;;;;5021048;28;20229;-61
2024/02/14 04:20:08;;;;;;;14.10;8.93;;;9.90;99.90;;;;;;5017792;28;20214;-61
2024/02/14 04:22:36;;;;;;;13.70;8.63;;;9.90;99.90;;;;;;5013821;28;20306;-61
2024/02/14 04:25:05;;;;;;;11.77;8.63;;;9.90;99.90;;;;;;5015379;28;20612;-61
2024/02/14 04:27:33;;;;;;;12.77;8.70;;;9.90;99.90;;;;;;5018171;28;20229;-61
2024/02/14 04:30:02;;;;;;;11.47;7.90;;;9.90;99.90;;;;;;5019275;28;20281;-61
2024/02/14 04:32:31;;;;;;;12.87;8.10;;;10.00;99.90;;;;;;5016594;28;20277;-62
2024/02/14 04:35:01;;;;;;;11.00;7.70;;;10.00;99.90;;;;;;5015855;28;20194;-61
2024/02/14 04:37:31;;;;;;;14.27;8.10;;;10.00;99.90;;;;;;5016236;28;20218;-62
2024/02/14 04:39:59;;;;;;;13.27;8.03;;;10.00;99.90;;;;;;5018444;28;20316;-62
2024/02/14 04:42:28;;;;;;;10.73;7.93;;;10.00;99.90;;;;;;5017127;28;20217;-62
2024/02/14 04:44:56;;;;;;;15.67;8.33;;;10.00;99.90;;;;;;5019770;28;20749;-61
2024/02/14 04:47:24;;;;;;;12.03;7.87;;;10.00;99.90;;;;;;5016285;28;20213;-61
2024/02/14 04:49:53;;;;;;;15.10;8.40;;;10.00;99.90;;;;;;5017789;28;20278;-62
2024/02/14 04:52:21;;;;;;;11.70;8.97;;;10.00;99.90;;;;;;5013978;28;20221;-61
2024/02/14 04:54:51;;;;;;;8.93;7.63;;;10.00;99.90;;;;;;5015959;28;20225;-61
2024/02/14 04:57:20;;;;;;;11.33;8.40;;;10.00;99.90;;;;;;5017997;28;20229;-62
2024/02/14 04:59:48;;;;;;;11.57;8.70;;;10.00;99.90;;;;;;5017423;28;20303;-62
2024/02/14 05:02:16;;;;;;;11.67;8.40;;;10.00;99.90;;;;;;5016097;28;20288;-61
2024/02/14 05:04:45;;;;;;;14.33;8.10;;;10.00;99.90;;;;;;5017311;28;20256;-61
2024/02/14 05:07:13;;;;;;;10.50;8.17;;;10.00;99.90;;;;;;5018896;28;20217;-61
2024/02/14 05:09:42;;;;;;;16.70;8.70;;;10.10;99.90;;;;;;5016903;28;20249;-62
2024/02/14 05:12:11;;;;;;;11.13;8.23;;;10.00;99.90;;;;;;5019909;28;20230;-61
2024/02/14 05:14:40;;;;;;;12.10;8.27;;;10.10;99.90;;;;;;5013189;28;20226;-61
2024/02/14 05:17:08;;;;;;;11.00;7.87;;;10.10;99.90;;;;;;5017728;28;20539;-61
2024/02/14 05:19:37;;;;;;;12.90;7.83;;;10.00;99.90;;;;;;5013278;28;20228;-62
2024/02/14 05:22:05;;;;;;;8.87;7.80;;;10.10;99.90;;;;;;5017609;28;20241;-61
2024/02/14 05:24:37;;;;;;;14.63;8.90;;;10.00;99.90;;;;;;5016376;28;20226;-62
2024/02/14 05:27:06;;;;;;;11.27;7.77;;;10.10;99.90;;;;;;5021445;28;20253;-61
2024/02/14 05:29:35;;;;;;;9.00;7.07;;;10.10;99.90;;;;;;5019601;28;20305;-61
2024/02/14 05:32:05;;;;;;;16.10;8.17;;;10.10;99.90;;;;;;5015429;28;20202;-62
2024/02/14 05:34:33;;;;;;;16.13;8.00;;;10.10;99.90;;;;;;5014499;28;20724;-61
2024/02/14 05:37:02;;;;;;;12.13;8.03;;;10.10;99.90;;;;;;5013528;28;20225;-61
2024/02/14 05:39:30;;;;;;;15.47;8.17;;;10.10;99.90;;;;;;5010169;28;20708;-62
2024/02/14 05:41:58;;;;;;;12.73;7.53;;;10.20;99.90;;;;;;5014524;28;21012;-62
2024/02/14 05:44:28;;;;;;;11.70;7.63;;;10.20;99.90;;;;;;5023209;28;20205;-61
2024/02/14 05:46:58;;;;;;;10.47;8.53;;;10.20;99.90;;;;;;5018292;28;20580;-61
2024/02/14 05:49:26;;;;;;;10.73;7.60;;;10.20;99.90;;;;;;5021436;28;20621;-61
2024/02/14 05:51:55;;;;;;;11.17;7.33;;;10.30;99.90;;;;;;5019156;28;20308;-62
2024/02/14 05:54:23;;;;;;;8.40;6.90;;;10.30;99.90;;;;;;5020161;28;20217;-61
2024/02/14 05:56:53;;;;;;;8.27;7.47;;;10.30;99.90;;;;;;5024111;28;20222;-61
2024/02/14 05:59:22;;;;;;;7.87;6.90;;;10.30;99.90;;;;;;5019347;28;20198;-61
2024/02/14 06:01:51;;;;;;;11.07;7.33;;;10.30;99.90;;;;;;5024043;28;20198;-61
2024/02/14 06:04:21;;;;;;;9.20;7.07;;;10.30;99.90;;;;;;5021460;28;20229;-62
2024/02/14 06:06:49;;;;;;;9.90;7.50;;;10.30;99.90;;;;;;5019288;28;20228;-61
2024/02/14 06:09:17;;;;;;;8.73;6.67;;;10.30;99.90;;;;;;5020504;28;20221;-61
2024/02/14 06:11:45;;;;;;;9.33;6.90;;;10.40;99.90;;;;;;5020152;28;20213;-62
2024/02/14 06:14:14;;;;;;;11.50;6.70;;;10.40;99.90;;;;;;5020592;28;21135;-61
2024/02/14 06:16:42;;;;;;;17.17;7.17;;;10.40;99.90;;;;;;5021081;28;20193;-61
2024/02/14 06:19:11;;;;;;;8.23;6.90;;;10.40;99.90;;;;;;5021411;28;20226;-61
2024/02/14 06:21:41;;;;;;;12.43;7.47;;;10.40;99.90;;;;;;5020649;28;20236;-61
2024/02/14 06:24:09;;;;;;;9.90;7.50;;;10.40;99.90;;;;;;5020112;28;20421;-62
2024/02/14 06:26:37;;;;;;;11.77;7.30;;;10.30;99.90;;;;;;5025612;28;20225;-61
2024/02/14 06:29:06;;;;;;;11.00;7.20;;;10.30;99.90;;;;;;5022178;28;20208;-61
2024/02/14 06:31:34;;;;;;;10.53;7.27;;;10.40;99.90;;;;;;5017325;28;20585;-62
2024/02/14 06:34:06;;;;;;;7.17;6.47;;;10.40;99.90;;;;;;5018221;28;20231;-61
2024/02/14 06:36:35;;;;;;;14.90;7.30;;;10.40;99.90;;;;;;5019633;28;20241;-61
2024/02/14 06:39:07;;;;;;;12.53;7.57;;;10.40;99.90;;;;;;5021540;28;20959;-61
2024/02/14 06:41:35;;;;;;;11.67;7.07;;;10.40;99.90;;;;;;5021356;28;20226;-62
2024/02/14 06:44:04;;;;;;;10.10;6.90;;;10.40;99.90;;;;;;5021165;28;20205;-62
2024/02/14 06:46:33;;;;;;;11.43;6.83;;;10.50;99.90;;;;;;5019575;28;20210;-61
2024/02/14 06:49:01;;;;;;;10.97;7.30;;;10.50;99.90;;;;;;5019961;28;20385;-61
2024/02/14 06:51:30;;;;;;;8.73;7.47;;;10.50;99.90;;;;;;5019240;28;20691;-61
2024/02/14 06:53:58;;;;;;;13.80;7.23;;;10.50;99.90;;;;;;5009690;28;20217;-61
2024/02/14 06:56:30;;;;;;;11.87;7.20;;;10.50;99.90;;;;;;5019926;28;20186;-62
2024/02/14 06:58:59;;;;;;;14.10;7.93;;;10.50;99.90;;;;;;5016858;28;20286;-61
2024/02/14 07:01:28;;;;;;;16.67;7.40;;;10.40;99.90;;;;;;5017828;28;20328;-61
2024/02/14 07:03:57;;;;;;;8.77;7.10;;;10.50;99.90;;;;;;5020385;28;20226;-62
2024/02/14 07:06:25;;;;;;;9.23;7.07;;;10.50;99.90;;;;;;5020058;28;20225;-61
2024/02/14 07:08:54;;;;;;;11.90;7.33;;;10.40;99.90;;;;;;5018653;28;20384;-61
2024/02/14 07:11:22;;;;;;;12.87;7.60;;;10.50;99.90;;;;;;5020528;28;20190;-61
2024/02/14 07:13:53;;;;;;;10.87;7.60;;;10.50;99.90;;;;;;5019155;28;20217;-62
2024/02/14 07:16:21;;;;;;;10.97;7.40;;;10.40;99.90;;;;;;5017808;28;20236;-61
2024/02/14 07:18:50;;;;;;;12.57;6.93;;;10.50;99.90;;;;;;5018194;28;20221;-61
2024/02/14 07:21:19;;;;;;;13.27;7.17;;;10.50;99.90;;;;;;5018934;28;20225;-62
2024/02/14 07:23:47;;;;;;;8.77;6.90;;;10.50;99.90;;;;;;5018694;28;20312;-62
2024/02/14 07:26:15;;;;;;;15.40;7.47;;;10.50;99.90;;;;;;5016574;28;20197;-61
2024/02/14 07:28:44;;;;;;;9.17;7.23;;;10.50;99.90;;;;;;5019222;28;20257;-61
2024/02/14 07:31:13;;;;;;;10.63;6.93;;;10.60;99.90;;;;;;5020200;28;20312;-62
2024/02/14 07:33:43;;;;;;;12.67;6.80;;;10.60;99.90;;;;;;5023149;28;20608;-62
2024/02/14 07:36:12;;;;;;;13.43;7.70;;;10.60;99.90;;;;;;5017786;28;20249;-62
2024/02/14 07:38:42;;;;;;;17.87;7.70;;;10.60;99.90;;;;;;5016642;28;20581;-62
2024/02/14 07:41:10;;;;;;;11.93;7.20;;;10.70;99.90;;;;;;5017735;28;20336;-62
2024/02/14 07:43:39;;;;;;;12.50;7.53;;;10.70;99.90;;;;;;5016370;28;20230;-61
2024/02/14 07:46:08;;;;;;;9.40;7.53;;;10.70;99.90;;;;;;5016847;28;20730;-62
2024/02/14 07:48:37;;;;;;;15.13;8.10;;;10.60;99.90;;;;;;5018823;28;20226;-61
2024/02/14 07:51:08;;;;;;;13.90;7.87;;;10.60;99.90;;;;;;5012427;28;20217;-61
2024/02/14 07:53:36;;;;;;;11.93;8.37;;;10.60;99.90;;;;;;5016927;28;20244;-62
2024/02/14 07:56:06;;;;;;;15.20;8.43;;;10.60;99.90;;;;;;5016772;28;20197;-61
2024/02/14 07:58:34;;;;;;;9.93;7.63;;;10.70;99.90;;;;;;5017035;28;20225;-61
2024/02/14 08:01:03;;;;;;;12.80;7.90;;;10.70;99.90;;;;;;5018973;28;20228;-62
2024/02/14 08:03:32;;;;;;;10.87;7.67;;;10.70;99.90;;;;;;5014997;28;20226;-61
2024/02/14 08:06:02;;;;;;;14.50;7.73;;;10.70;99.90;;;;;;5018535;28;20229;-62
2024/02/14 08:08:30;;;;;;;10.60;7.13;;;10.80;99.90;;;;;;5017126;28;20218;-61
2024/02/14 08:10:58;;;;;;;11.70;7.73;;;10.80;99.90;;;;;;5015423;28;20198;-61
2024/02/14 08:13:27;;;;;;;13.07;8.13;;;10.80;99.90;;;;;;5018903;28;20295;-61
2024/02/14 08:15:59;;;;;;;16.77;8.80;;;10.80;99.90;;;;;;5019300;28;20229;-61
2024/02/14 08:18:28;;;;;;;15.63;8.47;;;10.80;99.90;;;;;;5014603;28;20225;-61
2024/02/14 08:20:56;;;;;;;19.07;9.23;;;10.70;99.90;;;;;;5017285;28;20296;-61
2024/02/14 08:23:26;;;;;;;12.10;8.00;;;10.70;99.90;;;;;;5020937;28;20193;-61
2024/02/14 08:25:57;;;;;;;13.63;8.37;;;10.80;99.90;;;;;;5017247;28;20196;-61
2024/02/14 08:28:25;;;;;;;11.30;7.93;;;10.80;99.90;;;;;;5017859;28;20328;-62
2024/02/14 08:30:53;;;;;;;11.93;8.63;;;10.80;99.90;;;;;;5019934;28;20221;-62
2024/02/14 08:33:21;;;;;;;14.20;8.10;;;10.90;99.90;;;;;;5013575;28;20237;-61
2024/02/14 08:35:50;;;;;;;15.43;8.10;;;10.90;99.90;;;;;;5015173;28;20324;-61
2024/02/14 08:38:18;;;;;;;17.80;8.17;;;11.00;99.90;;;;;;5013294;28;20732;-62
2024/02/14 08:40:47;;;;;;;10.30;7.33;;;10.90;99.90;;;;;;5022774;28;20212;-61
2024/02/14 08:43:16;;;;;;;12.47;7.43;;;11.00;99.90;;;;;;5016101;28;20228;-61
2024/02/14 08:45:44;;;;;;;14.87;8.27;;;11.00;99.90;;;;;;5012844;28;20565;-61
2024/02/14 08:48:12;;;;;;;11.53;8.00;;;11.10;99.90;;;;;;5018957;28;20229;-61
2024/02/14 08:50:41;;;;;;;10.13;7.90;;;11.20;99.90;;;;;;5015514;28;20304;-61
2024/02/14 08:53:11;;;;;;;12.40;8.47;;;11.20;99.90;;;;;;5015878;28;20212;-62
2024/02/14 08:55:39;;;;;;;13.20;7.77;;;11.30;99.90;;;;;;5014934;28;20248;-61
2024/02/14 08:58:10;;;;;;;10.43;7.30;;;11.30;99.90;;;;;;5017239;28;20222;-62
2024/02/14 09:00:38;;;;;;;11.07;7.23;;;11.30;99.90;;;;;;5017552;28;20291;-62
2024/02/14 09:03:07;;;;;;;9.07;7.80;;;11.30;99.90;;;;;;5019358;28;20712;-62
2024/02/14 09:05:37;;;;;;;10.63;8.67;;;11.30;99.90;;;;;;5017992;28;20302;-62
2024/02/14 09:08:05;;;;;;;11.13;7.03;;;11.40;99.90;;;;;;5016242;28;20276;-62
2024/02/14 09:10:34;;;;;;;11.60;7.77;;;11.40;99.90;;;;;;5015075;28;20217;-62
2024/02/14 09:13:02;;;;;;;13.83;7.77;;;11.40;99.90;;;;;;5020095;28;20229;-61
2024/02/14 09:15:32;;;;;;;12.17;7.43;;;11.40;99.90;;;;;;5016843;28;20340;-62
2024/02/14 09:18:03;;;;;;;11.93;7.20;;;11.40;99.90;;;;;;5020648;28;20687;-62
2024/02/14 09:20:31;;;;;;;9.70;7.00;;;11.50;99.90;;;;;;5021482;28;20194;-61
2024/02/14 09:23:00;;;;;;;9.50;6.47;;;11.50;99.90;;;;;;5019238;28;20264;-62
2024/02/14 09:25:28;;;;;;;6.10;5.47;;;11.50;99.90;;;;;;5019271;28;20230;-62
2024/02/14 09:27:56;;;;;;;11.30;6.67;;;11.50;99.90;;;;;;5020218;28;20218;-61
2024/02/14 09:30:24;;;;;;;13.30;6.33;;;11.50;99.90;;;;;;5020457;28;20224;-61
2024/02/14 09:33:07;;;;;;;7.63;5.57;;;11.50;99.90;;;;;;5018654;28;20241;-61
2024/02/14 09:35:37;;;;;;;9.10;5.87;;;11.40;99.90;;;;;;5018600;28;20236;-61
2024/02/14 09:38:06;;;;;;;6.47;5.70;;;11.40;99.90;;;;;;5017724;28;20603;-61
2024/02/14 09:40:34;;;;;;;6.80;6.00;;;11.40;99.90;;;;;;5019726;28;20218;-61
2024/02/14 09:43:07;;;;;;;6.73;5.87;;;11.40;99.90;;;;;;5018892;28;20225;-61
2024/02/14 09:45:35;;;;;;;6.60;5.97;;;11.40;99.90;;;;;;5016906;28;20220;-61
2024/02/14 09:48:05;;;;;;;10.13;6.57;;;11.40;99.90;;;;;;5018365;28;20316;-61
2024/02/14 09:50:35;;;;;;;8.63;6.60;;;11.40;99.90;;;;;;5018554;28;20316;-60
2024/02/14 09:53:04;;;;;;;6.93;6.13;;;11.40;99.90;;;;;;5020437;28;20193;-61
2024/02/14 09:55:35;;;;;;;6.87;6.10;;;11.50;99.90;;;;;;5019835;28;20617;-61
2024/02/14 09:58:06;;;;;;;6.73;6.00;;;11.40;99.90;;;;;;5016796;28;20710;-61
2024/02/14 10:00:36;;;;;;;7.37;6.30;;;11.40;99.90;;;;;;5018083;28;20800;-60
2024/02/14 10:03:06;;;;;;;9.77;6.70;;;11.40;99.90;;;;;;5019980;28;20233;-61
2024/02/14 10:05:36;;;;;;;7.03;6.40;;;11.40;99.90;;;;;;5021530;28;20225;-60
2024/02/14 10:08:05;;;;;;;6.57;5.97;;;11.40;99.90;;;;;;5020698;28;20198;-61
2024/02/14 10:10:35;;;;;;;6.90;6.30;;;11.50;99.90;;;;;;5021171;28;20762;-61
2024/02/14 10:13:05;;;;;;;6.33;5.83;;;11.50;99.90;;;;;;5019225;28;20218;-60
2024/02/14 10:15:34;;;;;;;6.60;5.73;;;11.50;99.90;;;;;;5025270;28;20612;-61
2024/02/14 10:18:03;;;;;;;6.07;5.57;;;11.60;99.90;;;;;;5019805;28;20225;-61
2024/02/14 10:20:34;;;;;;;6.10;5.60;;;11.60;99.90;;;;;;5022725;28;20194;-61
2024/02/14 10:23:05;;;;;;;7.63;6.07;;;11.60;99.90;;;;;;5018516;28;20600;-61
2024/02/14 10:25:36;;;;;;;6.20;5.70;;;11.60;99.90;;;;;;4999055;28;20261;-61
2024/02/14 10:28:08;;;;;;;6.83;6.00;;;11.60;99.90;;;;;;4998641;28;20247;-61
2024/02/14 10:30:40;;;;;;;6.53;5.93;;;11.60;99.90;;;;;;4999903;28;20257;-60
2024/02/14 10:33:09;;;;;;;6.60;6.00;;;11.60;99.90;;;;;;4996403;28;20230;-61
2024/02/14 10:35:53;;;;;;;6.70;6.17;;;11.60;99.90;;;;;;4998186;28;20225;-61
2024/02/14 10:38:26;;;;;;;6.43;5.83;;;11.60;99.90;;;;;;5001808;28;20197;-61
2024/02/14 10:40:55;;;;;;;7.20;6.50;;;11.60;99.90;;;;;;5000345;28;20212;-60
2024/02/14 10:43:24;;;;;;;6.77;6.07;;;11.60;99.90;;;;;;5002026;28;20226;-61
2024/02/14 10:45:54;;;;;;;7.43;6.27;;;11.60;99.90;;;;;;5000879;28;20248;-61
2024/02/14 10:48:25;;;;;;;6.97;6.33;;;11.60;99.90;;;;;;4996079;28;20237;-61
2024/02/14 10:50:58;;;;;;;6.70;6.03;;;11.60;99.90;;;;;;5003208;28;20237;-61
2024/02/14 10:53:34;;;;;;;7.13;6.43;;;11.60;99.90;;;;;;4997422;28;20191;-61
2024/02/14 10:56:03;;;;;;;6.60;6.10;;;11.60;99.90;;;;;;4999538;28;20202;-61
2024/02/14 10:58:34;;;;;;;6.67;6.13;;;11.70;99.90;;;;;;4999988;28;20245;-61
2024/02/14 11:01:03;;;;;;;6.80;6.20;;;11.70;99.90;;;;;;5001420;28;20226;-61
2024/02/14 11:03:31;;;;;;;7.90;6.20;;;11.70;99.90;;;;;;4999963;28;20554;-61
2024/02/14 11:06:03;;;;;;;6.40;5.80;;;11.70;99.90;;;;;;4999405;28;20230;-61
2024/02/14 11:08:35;;;;;;;7.20;6.60;;;11.70;99.90;;;;;;4997467;28;20201;-61
2024/02/14 11:11:04;;;;;;;6.80;6.20;;;11.70;99.90;;;;;;5000168;28;20226;-61
2024/02/14 11:13:32;;;;;;;6.77;6.17;;;11.70;99.90;;;;;;5000624;28;20569;-61
2024/02/14 11:16:01;;;;;;;9.17;6.97;;;11.70;99.90;;;;;;4995513;28;20280;-61
2024/02/14 11:18:31;;;;;;;8.50;6.90;;;11.80;99.90;;;;;;4996873;28;20555;-61
2024/02/14 11:21:00;;;;;;;7.60;6.83;;;11.80;99.90;;;;;;4998956;28;20683;-61
2024/02/14 11:23:32;;;;;;;7.60;7.00;;;11.80;99.90;;;;;;4999678;28;20874;-61
2024/02/14 11:26:04;;;;;;;8.43;7.47;;;11.80;99.90;;;;;;5001541;28;20198;-61
2024/02/14 11:28:32;;;;;;;7.67;7.03;;;11.80;99.90;;;;;;4999125;28;20207;-61
2024/02/14 11:31:03;;;;;;;9.93;7.53;;;11.90;99.90;;;;;;5000670;28;20218;-61
2024/02/14 11:33:33;;;;;;;9.17;7.53;;;11.90;99.90;;;;;;5000905;28;20778;-61
2024/02/14 11:36:10;;;;;;;11.43;7.70;;;11.90;99.90;;;;;;4999922;28;20234;-61
2024/02/14 11:38:41;;;;;;;9.13;7.03;;;11.90;99.90;;;;;;4997987;28;20295;-61
2024/02/14 11:41:12;;;;;;;9.27;7.53;;;11.90;99.90;;;;;;5000814;28;20692;-61
2024/02/14 11:43:40;;;;;;;10.37;7.13;;;12.00;99.90;;;;;;5018234;28;20225;-61
2024/02/14 11:46:09;;;;;;;9.87;7.33;;;12.10;99.90;;;;;;5021380;28;20225;-61
2024/02/14 11:48:38;;;;;;;7.67;6.87;;;12.10;99.90;;;;;;5018754;28;20245;-62
2024/02/14 11:51:12;;;;;;;8.33;6.87;;;12.10;99.90;;;;;;5019681;28;20225;-61
2024/02/14 11:53:40;;;;;;;7.20;6.50;;;12.20;99.90;;;;;;5016491;28;20249;-61
2024/02/14 11:56:12;;;;;;;6.93;6.33;;;12.20;99.90;;;;;;5017101;28;20194;-61
2024/02/14 11:58:40;;;;;;;7.37;6.10;;;12.30;99.90;;;;;;5018015;28;20309;-61
2024/02/14 12:01:09;;;;;;;9.20;6.30;;;12.30;99.90;;;;;;5017058;28;20221;-61
2024/02/14 12:03:38;;;;;;;8.90;6.00;;;12.40;99.90;;;;;;5016995;28;20226;-62
2024/02/14 12:06:07;;;;;;;6.60;5.87;;;12.40;99.90;;;;;;5020107;28;20238;-61
2024/02/14 12:08:37;;;;;;;6.67;5.57;;;12.40;99.90;;;;;;5018721;28;20229;-61
2024/02/14 12:11:05;;;;;;;8.70;6.10;;;12.40;99.90;;;;;;5016828;28;20790;-61
2024/02/14 12:13:37;;;;;;;7.07;5.10;;;12.50;99.90;;;;;;5016424;28;20268;-61
2024/02/14 12:16:08;;;;;;;8.73;5.37;;;12.50;99.90;;;;;;5018383;28;20259;-61
2024/02/14 12:18:36;;;;;;;8.70;5.73;;;12.60;99.90;;;;;;5018232;28;20220;-61
2024/02/14 12:21:08;;;;;;;7.73;5.80;;;12.60;99.90;;;;;;5017468;28;20244;-61
2024/02/14 12:23:37;;;;;;;10.27;6.17;;;12.60;99.90;;;;;;5017379;28;20284;-61
2024/02/14 12:26:05;;;;;;;7.80;5.43;;;12.60;99.90;;;;;;5015119;28;20260;-60
2024/02/14 12:28:36;;;;;;;9.13;6.00;;;12.60;99.90;;;;;;5019306;28;20316;-61
2024/02/14 12:31:05;;;;;;;7.93;5.50;;;12.70;99.90;;;;;;5018215;28;20311;-61
2024/02/14 12:33:34;;;;;;;9.63;6.10;;;12.70;99.90;;;;;;5022379;28;20249;-61
2024/02/14 12:36:03;;;;;;;8.47;5.90;;;12.70;99.90;;;;;;5017969;28;20237;-61
2024/02/14 12:38:32;;;;;;;7.97;5.77;;;12.70;99.90;;;;;;5015041;28;20197;-61
2024/02/14 12:41:01;;;;;;;6.03;5.43;;;12.70;99.90;;;;;;5017848;28;20611;-61
2024/02/14 12:43:30;;;;;;;5.80;5.23;;;12.60;99.90;;;;;;5018047;28;20272;-61
2024/02/14 12:46:00;;;;;;;10.80;5.73;;;12.60;99.90;;;;;;5015768;28;20229;-61
2024/02/14 12:48:29;;;;;;;8.27;5.80;;;12.60;99.90;;;;;;5011668;28;20622;-60
2024/02/14 12:50:58;;;;;;;8.00;5.63;;;12.60;99.90;;;;;;5018515;28;20613;-60
2024/02/14 12:53:26;;;;;;;6.23;5.50;;;12.50;99.90;;;;;;5019203;28;20722;-61
2024/02/14 12:55:55;;;;;;;9.83;6.50;;;12.50;99.90;;;;;;5020424;28;20196;-60